Latest Weather Observations for Gladstone

IDQ60801

Issued at 4:35 pm EST Saturday 19 April 2014 (issued every 30 minutes, with the page automatically refreshed every 10 minutes)

About weather observations | Map of weather stations | Latest weather observations for QLD | Other Formats
Station Details ID: 039123 Name: GLADSTONE RADAR Lat: -23.86 Lon: 151.26 Height: 74.5 m
Data from the previous 72 hours. | See also: Recent months at Gladstone
Date/Time
EST
Temp
°C
App
Temp
°C
Dew
Point
Rel
Hum
%
Delta-T
°C
Wind Press
QNH
hPa
Press
MSL
hPa
Rain
since 9 am
mm
Dir
 
Spd
km/h
Gust
km/h
Spd
kts
Gust
kts
19/04:30pm 25.1 23.3 12.0 44 7.5 NNE 13 19 7 10 1014.2 - 0.0
19/04:00pm 26.2 24.3 11.9 41 8.2 NE 13 19 7 10 1014.1 - 0.0
19/03:30pm 26.7 24.5 12.0 40 8.5 NE 15 22 8 12 1014.0 - 0.0
19/03:00pm 27.0 24.4 11.9 39 8.7 NE 17 22 9 12 1014.2 1013.8 0.0
19/02:30pm 27.5 25.0 11.1 36 9.4 NE 15 22 8 12 1014.4 - 0.0
19/02:00pm 27.9 25.3 11.9 37 9.3 NE 17 22 9 12 1014.6 - 0.0
19/01:30pm 28.5 26.5 11.6 35 9.8 NE 13 22 7 12 1014.8 - 0.0
19/01:00pm 28.3 26.3 11.4 35 9.7 NE 13 24 7 13 1015.0 - 0.0
19/12:30pm 28.4 25.4 10.6 33 10.1 ENE 17 24 9 13 1015.4 - 0.0
19/12:00pm 28.3 25.1 11.4 35 9.7 ENE 19 24 10 13 1015.9 1015.6 0.0
19/11:30am 28.1 25.8 11.6 36 9.5 ENE 15 22 8 12 1016.4 - 0.0
19/11:00am 28.1 27.7 15.1 45 7.9 E 11 17 6 9 1016.9 - 0.0
19/10:30am 26.7 24.5 9.5 34 9.5 SE 11 20 6 11 1017.2 - 0.0
19/10:00am 26.4 24.3 11.3 39 8.6 SE 13 20 7 11 1017.5 - 0.0
19/09:30am 25.8 24.9 12.6 44 7.7 SE 9 17 5 9 1017.6 - 0.0
19/09:00am 23.0 23.7 15.6 63 4.5 SSW 6 11 3 6 1017.8 1017.5 0.0
19/08:30am 21.5 23.0 15.6 69 3.5 SW 2 7 1 4 1017.8 - 0.0
19/08:00am 20.2 21.6 15.4 74 2.8 WSW 2 7 1 4 1017.6 - 0.0
19/07:30am 19.9 22.0 16.2 79 2.2 NW 0 6 0 3 1017.4 - 0.0
19/07:00am 17.9 18.5 15.9 88 1.2 SW 7 11 4 6 1017.2 - 0.0
19/06:30am 16.9 16.6 15.4 91 0.9 SW 11 15 6 8 1017.0 - 0.0
19/06:00am 17.3 17.8 15.6 90 1.0 SW 7 9 4 5 1016.7 1016.4 0.0
19/05:30am 17.9 18.5 16.9 94 0.6 SW 9 13 5 7 1016.5 - 0.0
19/05:00am 18.0 18.3 17.0 94 0.6 SW 11 13 6 7 1016.3 - 0.0
19/04:30am 18.7 19.7 17.7 94 0.6 SW 9 11 5 6 1016.3 - 0.0
19/04:00am 19.5 21.1 18.2 92 0.8 WSW 7 11 4 6 1016.2 - 0.0
19/03:30am 20.4 22.4 19.1 92 0.8 WSW 7 9 4 5 1016.1 - 0.0
19/03:00am 20.4 22.6 19.2 93 0.8 WSW 6 9 3 5 1016.1 1015.8 0.0
19/02:30am 20.4 22.6 19.6 95 0.5 WSW 7 9 4 5 1016.2 - 0.0
19/02:00am 19.8 21.3 19.0 95 0.5 SW 9 11 5 6 1016.2 - 0.0
19/01:30am 20.2 22.2 19.2 94 0.6 WSW 7 9 4 5 1016.4 - 0.0
19/01:00am 20.8 23.0 19.6 93 0.8 WSW 7 9 4 5 1016.4 - 0.0
19/12:30am 21.2 23.4 19.5 90 1.1 W 7 9 4 5 1016.5 - 0.0
19/12:00am 22.0 24.0 19.9 88 1.3 NW 9 11 5 6 1016.7 1016.4 0.0
 
Date/Time
EST
Temp
°C
App
Temp
°C
Dew
Point
Rel
Hum
%
Delta-T
°C
Wind Press
QNH
hPa
Press
MSL
hPa
Rain
since 9 am
mm
Dir
 
Spd
km/h
Gust
km/h
Spd
kts
Gust
kts
18/11:30pm 21.9 24.1 19.6 87 1.5 WNW 7 9 4 5 1016.7 - 0.0
18/11:00pm 22.0 24.2 19.7 87 1.5 WNW 7 9 4 5 1016.8 - 0.0
18/10:30pm 22.3 23.7 19.5 84 1.8 NW 11 13 6 7 1016.8 - 0.0
18/10:00pm 22.9 24.8 19.7 82 2.1 NNW 9 13 5 7 1016.9 - 0.0
18/09:30pm 23.0 24.7 19.4 80 2.3 NNW 9 13 5 7 1016.9 - 0.0
18/09:00pm 23.0 25.1 19.4 80 2.3 NNW 7 11 4 6 1016.7 1016.4 0.0
18/08:30pm 23.0 25.1 19.4 80 2.3 NNW 7 9 4 5 1016.6 - 0.0
18/08:00pm 23.2 25.4 19.1 78 2.6 NW 6 7 3 4 1016.6 - 0.0
18/07:30pm 23.4 24.8 18.7 75 3.0 NNW 9 15 5 8 1016.2 - 0.0
18/07:00pm 23.5 25.2 18.6 74 3.1 NNW 7 11 4 6 1015.8 - 0.0
18/06:30pm 23.7 24.7 18.6 73 3.2 NW 11 17 6 9 1015.2 - 0.0
18/06:00pm 24.0 25.3 18.4 71 3.5 NNW 9 17 5 9 1014.9 1014.6 0.0
18/05:30pm 24.5 25.0 17.5 65 4.4 N 11 19 6 10 1014.6 - 0.0
18/05:00pm 25.1 26.0 17.6 63 4.7 N 9 17 5 9 1014.1 - 0.0
18/04:30pm 26.0 27.3 18.4 63 4.8 NNE 9 19 5 10 1013.9 - 0.0
18/04:00pm 26.7 27.0 18.0 59 5.5 NNE 13 20 7 11 1013.6 - 0.0
18/03:30pm 27.6 28.8 19.1 59 5.5 NNE 11 19 6 10 1013.4 - 0.0
18/03:00pm 27.9 29.1 19.1 58 5.7 NNE 11 19 6 10 1013.4 1013.0 0.0
18/02:30pm 28.5 29.6 19.7 59 5.8 NE 13 20 7 11 1013.6 - 0.0
18/02:00pm 28.3 30.1 20.3 62 5.3 NE 11 19 6 10 1014.0 - 0.0
18/01:30pm 26.7 28.1 17.7 57 5.7 NNE 7 13 4 7 1014.2 - 0.0
18/01:00pm 27.8 28.5 14.4 43 8.1 NW 4 9 2 5 1014.4 - 0.0
18/12:30pm 27.7 28.4 15.7 48 7.4 S 6 15 3 8 1014.9 - 0.0
18/12:00pm 27.8 27.6 14.8 45 7.9 SW 9 13 5 7 1015.3 1015.0 0.0
18/11:30am 28.4 29.3 16.7 49 7.3 W 7 11 4 6 1015.9 - 0.0
18/11:00am 26.6 26.3 14.4 47 7.3 SSW 9 13 5 7 1016.4 - 0.0
18/10:30am 26.2 27.4 18.3 61 5.0 SSW 9 15 5 8 1016.9 - 0.0
18/10:00am 26.1 28.0 19.7 68 4.2 WSW 9 17 5 9 1017.1 - 0.0
18/09:30am 24.7 26.1 19.5 73 3.4 WSW 11 20 6 11 1017.2 - 0.0
18/09:00am 23.8 26.4 20.5 82 2.1 WSW 7 15 4 8 1017.2 1016.9 1.2
18/08:30am 22.7 25.2 20.2 86 1.6 WSW 7 11 4 6 1017.1 - 1.2
18/08:00am 21.4 23.4 20.0 92 0.9 WSW 9 15 5 8 1017.0 - 1.2
18/07:30am 20.0 22.0 19.2 95 0.5 WSW 7 11 4 6 1017.0 - 1.2
18/07:00am 19.5 21.0 18.8 96 0.4 WSW 9 15 5 8 1016.7 - 1.2
18/06:30am 19.3 20.2 18.5 95 0.5 WSW 11 15 6 8 1016.8 - 1.2
18/06:00am 19.7 21.0 18.5 93 0.7 WSW 9 15 5 8 1016.6 1016.3 1.2
18/05:30am 20.3 21.8 19.0 92 0.8 SW 9 11 5 6 1016.6 - 1.2
18/05:00am 20.2 21.3 18.9 92 0.8 SW 11 13 6 7 1016.3 - 1.2
18/04:30am 20.3 21.4 18.8 91 0.9 SW 11 17 6 9 1016.3 - 1.2
18/04:00am 20.5 21.7 19.0 91 0.9 SW 11 15 6 8 1016.2 - 1.2
18/03:30am 20.5 22.0 19.0 91 0.9 SW 9 13 5 7 1016.0 - 1.2
18/03:00am 20.5 22.0 19.0 91 0.9 WSW 9 9 5 5 1016.2 1015.9 1.2
18/02:30am 20.7 22.6 19.0 90 1.1 WSW 7 9 4 5 1016.3 - 1.2
18/02:00am 21.1 24.4 19.2 89 1.2 CALM 0 6 0 3 1016.5 - 1.2
18/01:30am 21.2 24.5 19.1 88 1.3 CALM 0 0 0 0 1016.6 - 1.2
18/01:00am 21.7 24.4 19.4 87 1.5 S 4 6 2 3 1016.8 - 1.2
18/12:30am 21.9 25.4 19.5 86 1.5 CALM 0 0 0 0 1017.0 - 1.2
18/12:00am 21.9 25.4 19.5 86 1.5 CALM 0 0 0 0 1017.2 1016.9 1.2
 
Date/Time
EST
Temp
°C
App
Temp
°C
Dew
Point
Rel
Hum
%
Delta-T
°C
Wind Press
QNH
hPa
Press
MSL
hPa
Rain
since 9 am
mm
Dir
 
Spd
km/h
Gust
km/h
Spd
kts
Gust
kts
17/11:30pm 22.0 24.1 19.4 85 1.7 W 7 7 4 4 1017.3 - 1.2
17/11:00pm 22.7 24.8 19.3 81 2.2 NW 7 9 4 5 1017.4 - 1.2
17/10:30pm 22.3 25.8 19.5 84 1.8 CALM 0 0 0 0 1017.6 - 1.2
17/10:00pm 22.0 24.3 19.5 86 1.6 WSW 6 7 3 4 1017.6 - 1.2
17/09:30pm 22.9 25.1 19.7 82 2.1 NNW 7 9 4 5 1017.6 - 1.2
17/09:00pm 22.7 25.0 19.9 84 1.8 N 7 9 4 5 1017.5 1017.2 1.2
17/08:30pm 22.7 25.1 20.0 85 1.7 N 7 9 4 5 1017.3 - 1.2
17/08:00pm 22.7 25.0 19.9 84 1.8 N 7 9 4 5 1017.1 - 1.2
17/07:30pm 22.8 25.3 20.3 86 1.6 N 7 11 4 6 1016.7 - 1.2
17/07:00pm 22.3 24.3 20.0 87 1.5 N 9 11 5 6 1016.4 - 1.2
17/06:30pm 22.1 24.0 19.8 87 1.5 NNE 9 13 5 7 1015.8 - 1.2
17/06:00pm 22.1 24.0 19.8 87 1.5 N 9 13 5 7 1015.6 1015.3 1.2
17/05:30pm 22.9 25.3 20.8 88 1.4 NE 9 13 5 7 1015.4 - 1.0
17/05:00pm 24.5 27.1 20.0 76 2.9 NE 6 13 3 7 1015.2 - 0.0
17/04:30pm 25.1 26.4 19.2 70 3.8 N 11 17 6 9 1014.8 - 0.0
17/04:00pm 26.2 27.0 19.1 65 4.6 N 13 20 7 11 1014.5 - 0.0
17/03:30pm 26.7 27.8 19.6 65 4.6 NNE 13 20 7 11 1014.3 - 0.0
17/03:00pm 26.5 26.9 18.9 63 4.9 NE 15 24 8 13 1014.4 1014.0 0.0
17/02:30pm 26.1 25.7 18.8 64 4.7 NE 19 26 10 14 1014.7 - 0.0
17/02:00pm 27.8 28.9 19.6 61 5.3 NNE 13 24 7 13 1014.9 - 0.0
17/01:30pm 27.8 28.6 19.8 61 5.2 NE 15 24 8 13 1015.1 - 0.0
17/01:00pm 28.1 29.2 20.4 63 5.1 NE 15 26 8 14 1015.6 - 0.0
17/12:30pm 28.5 29.8 20.2 60 5.5 NE 13 22 7 12 1016.0 - 0.0
17/12:00pm 28.1 29.4 20.1 62 5.2 NE 13 20 7 11 1016.5 1016.2 0.0
17/11:30am 28.0 29.4 19.5 60 5.5 NE 11 17 6 9 1017.1 - 0.0
17/11:00am 28.2 30.3 21.0 65 4.8 NE 11 17 6 9 1017.7 - 0.0
17/10:30am 28.1 29.8 20.1 62 5.3 NE 11 17 6 9 1017.9 - 0.0
17/10:00am 27.0 28.6 19.1 62 5.1 NE 9 13 5 7 1018.0 - 0.0
17/09:30am 26.9 28.9 20.0 66 4.5 ENE 9 13 5 7 1018.1 - 0.0
17/09:00am 25.0 27.2 19.6 72 3.5 ESE 7 9 4 5 1018.1 1017.8 0.0
17/08:30am 23.7 26.2 19.8 79 2.5 SE 6 9 3 5 1018.1 - 0.0
17/08:00am 22.5 26.0 19.5 83 1.9 CALM 0 7 0 4 1017.8 - 0.0
17/07:30am 21.5 23.4 18.9 85 1.6 SSW 7 9 4 5 1017.6 - 0.0
17/07:00am 21.1 22.5 18.7 86 1.5 S 9 11 5 6 1017.2 - 0.0
17/06:30am 20.7 21.9 18.3 86 1.5 S 9 13 5 7 1016.9 - 0.0
17/06:00am 20.7 21.6 18.5 87 1.4 S 11 13 6 7 1016.6 1016.3 0.0
17/05:30am 20.5 22.2 18.4 88 1.3 SSW 7 9 4 5 1016.4 - 0.0
17/05:00am 20.9 22.1 18.3 85 1.6 S 9 13 5 7 1016.2 - 0.0
17/04:30am 21.0 22.3 18.4 85 1.6 SSE 9 13 5 7 1015.9 - 0.0
17/04:00am 21.1 22.5 18.7 86 1.5 S 9 11 5 6 1015.7 - 0.0
17/03:30am 20.9 21.9 18.7 87 1.4 S 11 15 6 8 1015.7 - 0.0
17/03:00am 21.1 22.1 18.7 86 1.5 S 11 13 6 7 1015.6 1015.3 0.0
17/02:30am 21.2 22.2 18.6 85 1.6 SSE 11 15 6 8 1015.6 - 0.0
17/02:00am 21.4 22.9 18.8 85 1.6 S 9 13 5 7 1015.6 - 0.0
17/01:30am 21.3 22.4 18.9 86 1.5 S 11 13 6 7 1015.8 - 0.0
17/01:00am 21.5 23.0 18.9 85 1.6 S 9 13 5 7 1016.0 - 0.0
17/12:30am 21.7 23.2 18.9 84 1.8 S 9 13 5 7 1016.3 - 0.0
17/12:00am 21.9 23.6 19.3 85 1.7 S 9 13 5 7 1016.4 1016.1 0.0
 
Date/Time
EST
Temp
°C
App
Temp
°C
Dew
Point
Rel
Hum
%
Delta-T
°C
Wind Press
QNH
hPa
Press
MSL
hPa
Rain
since 9 am
mm
Dir
 
Spd
km/h
Gust
km/h
Spd
kts
Gust
kts
16/11:30pm 22.0 25.1 19.5 86 1.6 WSW 2 6 1 3 1016.2 - 0.0
16/11:00pm 22.1 24.4 19.5 85 1.7 WSW 6 7 3 4 1016.2 - 0.0
16/10:30pm 22.7 25.9 19.7 83 1.9 NW 2 6 1 3 1016.3 - 0.0
16/10:00pm 22.4 24.9 19.8 85 1.7 W 6 7 3 4 1016.2 - 0.0
16/09:30pm 22.4 24.7 19.4 83 1.9 N 6 9 3 5 1016.1 - 0.0
16/09:00pm 22.3 24.4 19.3 83 1.9 NNE 7 9 4 5 1016.0 1015.7 0.0
16/08:30pm 22.2 23.9 18.6 80 2.3 NE 7 9 4 5 1015.9 - 0.0
16/08:00pm 22.8 24.9 19.0 79 2.4 NE 6 11 3 6 1015.8 - 0.0
16/07:30pm 22.8 24.7 19.0 79 2.4 NE 7 13 4 7 1015.5 - 0.0
16/07:00pm 22.4 24.1 18.6 79 2.4 NE 7 11 4 6 1015.2 - 0.0
16/06:30pm 22.6 24.3 18.6 78 2.5 N 7 13 4 7 1014.8 - 0.0
16/06:00pm 22.6 23.9 18.4 77 2.6 NNE 9 15 5 8 1014.5 1014.1 0.0
16/05:30pm 23.6 24.1 18.3 72 3.3 NE 13 19 7 10 1013.9 - 0.0
16/05:00pm 23.9 24.3 18.1 70 3.6 NE 13 19 7 10 1013.8 - 0.0

Other Formats:

Comma delimited format used in spreadsheet applications
http://www.bom.gov.au/fwo/IDQ60801/IDQ60801.94380.axf

JavaScript Object Notation format (JSON) in row-major order
http://www.bom.gov.au/fwo/IDQ60801/IDQ60801.94380.json